Time;durP1;ratioP1;P1;durP2;ratioP2;P2;SDS_P1;SDS_P2;PMS_P1;PMS_P2;Temp;Humidity;BMP_temperature;BMP_pressure;BME280_temperature;BME280_humidity;BME280_pressure;Samples;Min_cycle;Max_cycle;Signal;HPM_P1;HPM_P2
2021/12/12 00:01:05;;;;;;;12.75;6.38;;;5.90;99.30;;;;;;5094295;28;20479;-75
2021/12/12 00:03:40;;;;;;;14.25;6.65;;;6.00;99.30;;;;;;5075237;28;20139;-75
2021/12/12 00:06:28;;;;;;;9.40;5.40;;;6.00;99.30;;;;;;5094340;28;20074;-74
2021/12/12 00:09:01;;;;;;;20.77;7.00;;;6.00;99.30;;;;;;5094134;28;20087;-75
2021/12/12 00:11:30;;;;;;;15.02;6.88;;;6.00;99.30;;;;;;5075489;28;20177;-75
2021/12/12 00:14:05;;;;;;;13.25;6.30;;;6.00;99.30;;;;;;5093779;28;20429;-75
2021/12/12 00:16:31;;;;;;;10.60;5.32;;;6.00;99.30;;;;;;5093606;28;20023;-74
2021/12/12 00:18:57;;;;;;;16.30;7.18;;;6.00;99.20;;;;;;5093655;28;20310;-76
2021/12/12 00:21:26;;;;;;;17.67;7.07;;;6.00;99.20;;;;;;5075293;28;20127;-76
2021/12/12 00:23:52;;;;;;;13.43;6.82;;;6.00;99.20;;;;;;5093907;28;20024;-76
2021/12/12 00:26:18;;;;;;;18.05;6.45;;;6.00;99.20;;;;;;5092676;28;20027;-76
2021/12/12 00:28:44;;;;;;;21.60;7.50;;;6.00;99.20;;;;;;5093738;28;20024;-76
2021/12/12 00:31:14;;;;;;;15.48;7.38;;;6.00;99.20;;;;;;5075521;28;20020;-76
2021/12/12 00:33:42;;;;;;;12.75;5.65;;;6.00;99.30;;;;;;5093385;28;20039;-76
2021/12/12 00:36:10;;;;;;;13.38;7.30;;;6.00;99.30;;;;;;5075044;28;20026;-76
2021/12/12 00:38:36;;;;;;;14.13;6.93;;;6.00;99.20;;;;;;5074900;28;20039;-76
2021/12/12 00:41:09;;;;;;;11.98;5.55;;;6.00;99.30;;;;;;5075276;28;20476;-76
2021/12/12 00:43:41;;;;;;;12.23;5.57;;;6.10;99.30;;;;;;5092559;28;20139;-76
2021/12/12 00:46:09;;;;;;;10.45;5.55;;;6.10;99.30;;;;;;5093216;28;20109;-77
2021/12/12 00:48:38;;;;;;;7.97;4.25;;;6.10;99.20;;;;;;5092983;28;20618;-76
2021/12/12 00:51:06;;;;;;;10.88;5.50;;;6.10;99.20;;;;;;5075175;28;20367;-75
2021/12/12 00:53:32;;;;;;;12.60;5.68;;;6.10;99.10;;;;;;5092911;28;20384;-77
2021/12/12 00:55:58;;;;;;;11.30;6.40;;;6.10;99.10;;;;;;5075363;28;20065;-76
2021/12/12 00:58:24;;;;;;;14.27;5.60;;;6.10;99.10;;;;;;5074720;28;20024;-76
2021/12/12 01:01:03;;;;;;;11.57;5.13;;;6.10;99.10;;;;;;5075152;28;20360;-74
2021/12/12 01:03:37;;;;;;;10.00;5.93;;;6.20;99.10;;;;;;5091932;28;20048;-74
2021/12/12 01:06:05;;;;;;;16.25;5.72;;;6.20;99.10;;;;;;5093201;28;20110;-76
2021/12/12 01:08:31;;;;;;;10.60;4.88;;;6.10;99.10;;;;;;5073951;28;20016;-74
2021/12/12 01:11:02;;;;;;;10.20;4.68;;;6.10;99.10;;;;;;5092951;28;20039;-74
2021/12/12 01:13:28;;;;;;;9.32;4.55;;;6.10;99.10;;;;;;5092278;28;20020;-74
2021/12/12 01:16:06;;;;;;;10.40;4.43;;;6.20;99.10;;;;;;5092933;28;20028;-74
2021/12/12 01:18:36;;;;;;;12.68;4.72;;;6.10;99.00;;;;;;5092432;28;20024;-75
2021/12/12 01:21:14;;;;;;;13.50;5.80;;;6.10;99.10;;;;;;5074734;28;20058;-75
2021/12/12 01:23:52;;;;;;;12.90;4.75;;;6.10;99.10;;;;;;5074139;28;20024;-74
2021/12/12 01:26:18;;;;;;;12.23;4.80;;;6.10;99.10;;;;;;5075010;28;20103;-74
2021/12/12 01:28:46;;;;;;;8.32;4.63;;;6.20;99.10;;;;;;5074828;28;20467;-75
2021/12/12 01:31:24;;;;;;;11.23;4.65;;;6.20;99.10;;;;;;5074615;28;20150;-75
2021/12/12 01:33:59;;;;;;;13.70;5.03;;;6.20;99.10;;;;;;5074751;28;20379;-75
2021/12/12 01:36:42;;;;;;;15.57;6.35;;;6.10;99.00;;;;;;5074200;28;20416;-75
2021/12/12 01:39:11;;;;;;;12.70;5.00;;;6.20;99.10;;;;;;5092354;28;20479;-75
2021/12/12 01:41:51;;;;;;;12.63;4.55;;;6.20;99.00;;;;;;5073945;28;20668;-75
2021/12/12 01:44:31;;;;;;;13.75;4.10;;;6.20;99.10;;;;;;5092514;28;20050;-75
2021/12/12 01:46:59;;;;;;;11.20;4.97;;;6.20;99.10;;;;;;5092547;28;20581;-75
2021/12/12 01:49:28;;;;;;;12.65;3.83;;;6.20;99.00;;;;;;5092156;28;20099;-74
2021/12/12 01:51:56;;;;;;;9.57;4.18;;;6.30;99.00;;;;;;5092396;28;20024;-74
2021/12/12 01:54:30;;;;;;;8.77;4.85;;;6.30;99.00;;;;;;5073803;28;20158;-75
2021/12/12 01:56:59;;;;;;;11.45;5.05;;;6.20;99.00;;;;;;5074194;28;20020;-74
2021/12/12 01:59:32;;;;;;;8.57;4.00;;;6.20;99.00;;;;;;5091918;28;20035;-75
2021/12/12 02:02:20;;;;;;;10.98;3.97;;;6.20;99.00;;;;;;5092302;28;20146;-75
2021/12/12 02:04:50;;;;;;;11.75;5.38;;;6.20;99.10;;;;;;5070826;28;20178;-74
2021/12/12 02:07:21;;;;;;;7.75;3.88;;;6.10;99.10;;;;;;5072076;28;20036;-75
2021/12/12 02:09:48;;;;;;;10.80;4.13;;;6.10;99.10;;;;;;5071866;28;20520;-74
2021/12/12 02:12:15;;;;;;;12.20;4.57;;;6.00;99.20;;;;;;5071710;28;20040;-74
2021/12/12 02:14:42;;;;;;;13.25;4.35;;;6.00;99.30;;;;;;5070323;28;20028;-74
2021/12/12 02:17:20;;;;;;;12.85;4.47;;;6.00;99.30;;;;;;5071891;28;20027;-74
2021/12/12 02:20:05;;;;;;;8.18;3.90;;;6.00;99.40;;;;;;5071510;28;20056;-74
2021/12/12 02:36:20;;;;;;;10.18;4.63;;;5.90;99.50;;;;;;5071567;28;20032;-74
2021/12/12 02:38:50;;;;;;;9.90;4.18;;;5.90;99.50;;;;;;5069968;28;20055;-74
2021/12/12 02:41:18;;;;;;;9.40;3.97;;;5.90;99.60;;;;;;5070463;28;20020;-74
2021/12/12 02:43:48;;;;;;;10.05;3.90;;;5.90;99.60;;;;;;5070993;28;20036;-74
2021/12/12 02:46:17;;;;;;;8.85;3.65;;;5.90;99.60;;;;;;5071844;28;20035;-74
2021/12/12 02:48:45;;;;;;;8.38;3.75;;;5.90;99.70;;;;;;5071193;28;20016;-74
2021/12/12 02:51:13;;;;;;;11.73;3.95;;;6.00;99.70;;;;;;5073505;28;20017;-74
2021/12/12 02:53:52;;;;;;;11.82;4.93;;;6.00;99.70;;;;;;5074985;28;20071;-74
2021/12/12 02:56:33;;;;;;;10.18;4.32;;;6.00;99.70;;;;;;5074163;28;20032;-74
2021/12/12 02:59:03;;;;;;;11.68;4.60;;;6.00;99.70;;;;;;5075656;28;20449;-74
2021/12/12 03:01:52;;;;;;;13.55;5.63;;;6.00;99.70;;;;;;5073471;28;20488;-74
2021/12/12 03:04:18;;;;;;;10.45;4.60;;;6.00;99.70;;;;;;5081839;28;20052;-74
2021/12/12 03:06:45;;;;;;;10.00;4.30;;;6.00;99.70;;;;;;5076901;28;20034;-74
2021/12/12 03:09:25;;;;;;;9.25;4.32;;;6.00;99.80;;;;;;5095644;28;20487;-74
2021/12/12 03:11:59;;;;;;;12.93;4.28;;;6.10;99.80;;;;;;5077066;28;20077;-74
2021/12/12 03:14:32;;;;;;;8.75;3.72;;;6.10;99.80;;;;;;5095331;28;20032;-75
2021/12/12 03:17:01;;;;;;;8.65;4.03;;;6.10;99.80;;;;;;5077121;28;20020;-75
2021/12/12 03:19:27;;;;;;;10.70;3.50;;;6.10;99.80;;;;;;5094985;28;20016;-74
2021/12/12 03:21:53;;;;;;;7.15;3.72;;;6.10;99.80;;;;;;5076946;28;20128;-74
2021/12/12 03:24:23;;;;;;;6.32;3.80;;;6.10;99.80;;;;;;5076960;28;20170;-74
2021/12/12 03:26:52;;;;;;;11.73;3.88;;;6.10;99.80;;;;;;5076501;28;20032;-74
2021/12/12 03:29:18;;;;;;;14.48;4.82;;;6.10;99.80;;;;;;5076772;28;20020;-74
2021/12/12 03:31:48;;;;;;;11.98;4.65;;;6.10;99.80;;;;;;5076421;28;20022;-74
2021/12/12 03:34:22;;;;;;;9.57;3.85;;;6.10;99.90;;;;;;5095112;28;20035;-74
2021/12/12 03:36:49;;;;;;;15.38;4.70;;;6.20;99.90;;;;;;5094437;28;20020;-75
2021/12/12 03:39:23;;;;;;;14.07;4.20;;;6.20;99.90;;;;;;5094781;28;20028;-74
2021/12/12 03:41:50;;;;;;;7.65;4.28;;;6.20;99.90;;;;;;5094225;28;20091;-75
2021/12/12 03:44:20;;;;;;;9.57;4.47;;;6.20;99.90;;;;;;5076481;28;20028;-74
2021/12/12 03:46:58;;;;;;;9.77;4.55;;;6.30;99.90;;;;;;5094324;28;20032;-74
2021/12/12 03:49:24;;;;;;;15.85;4.72;;;6.30;99.90;;;;;;5094743;28;20032;-74
2021/12/12 03:51:51;;;;;;;9.95;5.07;;;6.20;99.90;;;;;;5094152;28;20480;-74
2021/12/12 03:54:18;;;;;;;9.98;4.95;;;6.30;99.90;;;;;;5076310;28;20016;-74
2021/12/12 03:56:45;;;;;;;10.90;4.25;;;6.30;99.90;;;;;;5075838;28;20032;-74
2021/12/12 03:59:12;;;;;;;7.60;4.03;;;6.30;99.90;;;;;;5076603;28;20031;-74
2021/12/12 04:01:45;;;;;;;8.30;4.40;;;6.40;99.90;;;;;;5075583;28;20016;-75
2021/12/12 04:04:25;;;;;;;9.73;4.20;;;6.30;99.90;;;;;;5093990;28;20093;-74
2021/12/12 04:06:53;;;;;;;6.85;3.88;;;6.30;99.90;;;;;;5094146;28;20036;-74
2021/12/12 04:09:20;;;;;;;12.63;5.05;;;6.30;99.90;;;;;;5094187;28;20024;-74
2021/12/12 04:11:50;;;;;;;9.27;4.60;;;6.30;99.90;;;;;;5093989;28;20052;-74
2021/12/12 04:14:17;;;;;;;8.70;4.82;;;6.30;99.90;;;;;;5094168;28;20038;-74
2021/12/12 04:16:46;;;;;;;9.38;4.50;;;6.30;99.90;;;;;;5093582;28;20028;-74
2021/12/12 04:19:12;;;;;;;10.00;4.97;;;6.30;99.90;;;;;;5093944;28;20024;-75
2021/12/12 04:21:40;;;;;;;10.50;4.75;;;6.30;99.90;;;;;;5075260;28;20387;-74
2021/12/12 04:24:06;;;;;;;9.20;4.78;;;6.30;99.90;;;;;;5093542;28;20140;-74
2021/12/12 04:26:39;;;;;;;12.57;5.13;;;6.40;99.90;;;;;;5093490;28;20099;-74
2021/12/12 04:29:10;;;;;;;8.90;4.65;;;6.30;99.90;;;;;;5075591;28;20134;-74
2021/12/12 04:31:37;;;;;;;;;;;6.40;99.90;;;;;;5075639;28;20062;-75
2021/12/12 04:34:05;;;;;;;10.57;4.07;;;6.40;99.90;;;;;;5093713;28;19908;-75
2021/12/12 04:36:37;;;;;;;7.28;4.03;;;6.40;99.90;;;;;;5093395;28;20024;-74
2021/12/12 04:39:08;;;;;;;6.00;3.33;;;6.40;99.90;;;;;;5094061;28;20143;-74
2021/12/12 04:41:35;;;;;;;6.82;4.18;;;6.40;99.90;;;;;;5074640;28;20036;-74
2021/12/12 04:44:01;;;;;;;10.13;4.63;;;6.40;99.90;;;;;;5075314;28;20053;-74
2021/12/12 04:49:54;;;;;;;9.57;4.22;;;6.40;99.90;;;;;;5093089;28;20032;-74
2021/12/12 04:52:07;;;;;;;8.27;4.50;;;6.40;99.90;;;;;;5093579;28;20502;-75
2021/12/12 04:54:38;;;;;;;;;;;6.40;99.90;;;;;;5075206;28;20153;-74
2021/12/12 04:57:26;;;;;;;9.23;4.25;;;6.40;99.90;;;;;;5093667;28;19907;-76
2021/12/12 04:59:57;;;;;;;8.07;4.18;;;6.40;99.90;;;;;;5074710;28;20488;-75
2021/12/12 05:02:37;;;;;;;10.68;5.28;;;6.40;99.90;;;;;;5093488;28;20413;-76
2021/12/12 05:05:14;;;;;;;10.60;4.15;;;6.50;99.90;;;;;;5093076;28;20039;-76
2021/12/12 05:08:05;;;;;;;6.85;3.42;;;6.50;99.90;;;;;;5093144;28;20051;-75
2021/12/12 05:10:47;;;;;;;6.53;4.22;;;6.50;99.90;;;;;;5074896;28;20076;-75
2021/12/12 05:13:24;;;;;;;9.80;4.22;;;6.50;99.90;;;;;;5092549;28;20380;-75
2021/12/12 05:15:54;;;;;;;11.63;4.22;;;6.50;99.90;;;;;;5092626;28;20078;-75
2021/12/12 05:18:28;;;;;;;8.82;4.07;;;6.50;99.90;;;;;;5093077;28;20380;-75
2021/12/12 05:21:12;;;;;;;11.70;5.45;;;6.50;99.90;;;;;;5092580;28;20023;-75
2021/12/12 05:23:43;;;;;;;9.73;4.97;;;6.50;99.90;;;;;;5092560;28;20032;-76
2021/12/12 05:26:38;;;;;;;7.97;4.25;;;6.50;99.90;;;;;;5074804;28;20074;-76
2021/12/12 05:29:14;;;;;;;9.30;4.75;;;6.50;99.90;;;;;;5092684;28;20028;-75
2021/12/12 05:31:45;;;;;;;8.65;5.15;;;6.50;99.90;;;;;;5092252;28;20023;-75
2021/12/12 05:34:11;;;;;;;9.02;4.75;;;6.50;99.90;;;;;;5092826;28;20028;-75
2021/12/12 05:36:38;;;;;;;8.77;3.85;;;6.50;99.90;;;;;;5092256;28;20020;-75
2021/12/12 05:39:05;;;;;;;9.32;4.35;;;6.60;99.90;;;;;;5074517;28;20103;-75
2021/12/12 05:41:31;;;;;;;8.35;4.38;;;6.60;99.90;;;;;;5092583;28;20460;-75
2021/12/12 05:43:58;;;;;;;8.27;4.70;;;6.60;99.90;;;;;;5092098;28;20490;-75
2021/12/12 05:46:25;;;;;;;11.23;4.70;;;6.60;99.90;;;;;;5092800;28;20392;-75
2021/12/12 05:48:53;;;;;;;9.27;4.80;;;6.60;99.90;;;;;;5073841;28;20020;-75
2021/12/12 05:51:19;;;;;;;9.40;4.70;;;6.60;99.90;;;;;;5092528;28;20198;-75
2021/12/12 05:53:45;;;;;;;6.72;3.85;;;6.60;99.90;;;;;;5091958;28;20056;-75
2021/12/12 05:56:11;;;;;;;7.28;4.10;;;6.70;99.90;;;;;;5074253;28;20427;-76
2021/12/12 05:58:37;;;;;;;11.25;4.82;;;6.70;99.90;;;;;;5092443;28;20048;-75
2021/12/12 06:01:10;;;;;;;7.80;4.43;;;6.70;99.90;;;;;;5092141;28;20032;-75
2021/12/12 06:03:41;;;;;;;8.45;5.05;;;6.70;99.90;;;;;;5092292;28;20115;-76
2021/12/12 06:06:10;;;;;;;7.72;5.38;;;6.70;99.90;;;;;;5070509;28;20084;-75
2021/12/12 06:08:36;;;;;;;6.15;3.95;;;6.80;99.90;;;;;;5070735;28;20354;-75
2021/12/12 06:11:03;;;;;;;11.82;5.32;;;6.80;99.90;;;;;;5071634;28;20025;-76
2021/12/12 06:13:30;;;;;;;10.30;5.53;;;6.80;99.90;;;;;;5072023;28;20456;-75
2021/12/12 06:15:58;;;;;;;11.13;5.43;;;6.90;99.90;;;;;;5071286;28;20021;-75
2021/12/12 06:18:27;;;;;;;10.40;6.20;;;6.80;99.90;;;;;;5072042;28;20036;-76
2021/12/12 06:20:54;;;;;;;8.13;5.30;;;6.90;99.90;;;;;;5071587;28;20027;-75
2021/12/12 06:23:21;;;;;;;9.80;5.35;;;6.90;99.90;;;;;;5071913;28;20033;-75
2021/12/12 06:25:48;;;;;;;8.02;5.18;;;6.90;99.90;;;;;;5072847;28;20016;-75
2021/12/12 06:28:30;;;;;;;11.60;5.63;;;6.90;99.90;;;;;;5076001;28;20035;-75
2021/12/12 06:30:56;;;;;;;9.98;5.72;;;6.90;99.90;;;;;;5075463;28;20464;-76
2021/12/12 06:33:23;;;;;;;11.85;7.13;;;6.90;99.90;;;;;;5074662;28;20028;-75
2021/12/12 06:35:49;;;;;;;12.10;6.28;;;7.00;99.90;;;;;;5073984;28;20024;-76
2021/12/12 06:38:16;;;;;;;9.95;6.03;;;6.90;99.90;;;;;;5074477;28;20381;-76
2021/12/12 06:40:43;;;;;;;11.93;6.20;;;7.00;99.90;;;;;;5073882;28;20107;-76
2021/12/12 06:43:12;;;;;;;9.57;5.38;;;7.00;99.90;;;;;;5074277;28;20038;-75
2021/12/12 06:45:38;;;;;;;11.63;6.43;;;7.00;99.90;;;;;;5075658;28;20497;-75
2021/12/12 06:48:09;;;;;;;10.48;6.68;;;7.00;99.90;;;;;;5073741;28;20126;-75
2021/12/12 06:50:38;;;;;;;8.48;5.05;;;7.00;99.90;;;;;;5074336;28;20086;-76
2021/12/12 06:53:04;;;;;;;14.05;6.30;;;7.00;99.90;;;;;;5075223;28;20033;-75
2021/12/12 06:55:31;;;;;;;12.80;5.90;;;7.00;99.90;;;;;;5075496;28;20024;-75
2021/12/12 06:57:59;;;;;;;11.70;6.28;;;7.00;99.90;;;;;;5073270;28;20082;-75
2021/12/12 07:00:27;;;;;;;10.95;5.80;;;7.10;99.90;;;;;;5075283;28;20017;-75
2021/12/12 07:02:53;;;;;;;12.73;6.35;;;7.10;99.90;;;;;;5074705;28;20028;-76
2021/12/12 07:05:24;;;;;;;11.10;6.05;;;7.10;99.90;;;;;;5088068;28;20044;-75
2021/12/12 07:07:51;;;;;;;9.52;6.70;;;7.10;99.90;;;;;;5094789;28;20371;-76
2021/12/12 07:10:20;;;;;;;10.40;5.50;;;7.10;99.90;;;;;;5095533;28;20111;-76
2021/12/12 07:12:53;;;;;;;10.45;6.10;;;7.10;99.90;;;;;;5094992;28;20059;-76
2021/12/12 07:15:19;;;;;;;12.50;5.93;;;7.10;99.90;;;;;;5077379;28;20103;-76
2021/12/12 07:17:46;;;;;;;11.50;6.78;;;7.10;99.90;;;;;;5076540;28;20135;-75
2021/12/12 07:20:12;;;;;;;11.52;5.30;;;7.10;99.90;;;;;;5095370;28;20095;-76
2021/12/12 07:22:39;;;;;;;13.18;5.93;;;7.20;99.90;;;;;;5095098;28;20048;-75
2021/12/12 07:25:07;;;;;;;10.60;5.45;;;7.20;99.90;;;;;;5076263;28;20028;-76
2021/12/12 07:27:33;;;;;;;12.70;6.18;;;7.20;99.90;;;;;;5095333;28;20048;-75
2021/12/12 07:30:00;;;;;;;10.00;5.65;;;7.20;99.90;;;;;;5094927;28;20109;-75
2021/12/12 07:32:27;;;;;;;13.38;6.47;;;7.20;99.90;;;;;;5094980;28;20028;-76
2021/12/12 07:34:53;;;;;;;11.45;5.57;;;7.20;99.90;;;;;;5076239;28;20107;-76
2021/12/12 07:37:20;;;;;;;11.70;5.97;;;7.30;99.90;;;;;;5094537;28;20058;-75
2021/12/12 07:39:46;;;;;;;15.35;7.50;;;7.30;99.90;;;;;;5076060;28;20491;-75
2021/12/12 07:42:15;;;;;;;11.85;6.28;;;7.30;99.90;;;;;;5076501;28;20016;-75
2021/12/12 07:44:41;;;;;;;10.02;6.03;;;7.30;99.90;;;;;;5094315;28;20036;-75
2021/12/12 07:47:09;;;;;;;12.38;6.15;;;7.30;99.90;;;;;;5094252;28;20054;-75
2021/12/12 07:49:39;;;;;;;11.68;5.97;;;7.40;99.90;;;;;;5094756;28;20016;-76
2021/12/12 07:52:09;;;;;;;14.25;6.03;;;7.40;99.90;;;;;;5094495;28;20012;-75
2021/12/12 07:54:35;;;;;;;9.80;5.55;;;7.30;99.90;;;;;;5094437;28;20032;-76
2021/12/12 07:57:01;;;;;;;14.05;7.15;;;7.40;99.90;;;;;;5075876;28;20532;-76
2021/12/12 07:59:28;;;;;;;15.60;6.97;;;7.40;99.90;;;;;;5094431;28;20055;-75
2021/12/12 08:01:54;;;;;;;16.83;6.88;;;7.40;99.90;;;;;;5094280;28;20031;-75
2021/12/12 08:04:24;;;;;;;14.05;6.72;;;7.40;99.90;;;;;;5094088;28;20056;-75
2021/12/12 08:06:51;;;;;;;14.37;6.10;;;7.40;99.90;;;;;;5075695;28;20071;-75
2021/12/12 08:09:18;;;;;;;15.20;6.88;;;7.40;99.90;;;;;;5094224;28;20024;-75
2021/12/12 08:11:44;;;;;;;12.30;6.45;;;7.40;99.90;;;;;;5075650;28;20016;-75
2021/12/12 08:14:15;;;;;;;13.75;7.05;;;7.40;99.90;;;;;;5075436;28;20035;-75
2021/12/12 08:16:41;;;;;;;12.18;6.38;;;7.50;99.90;;;;;;5093899;28;20024;-75
2021/12/12 08:19:07;;;;;;;16.30;8.20;;;7.50;99.90;;;;;;5093664;28;20242;-75
2021/12/12 08:21:34;;;;;;;13.30;5.90;;;7.50;99.90;;;;;;5093992;28;20051;-75
2021/12/12 08:24:05;;;;;;;15.68;6.57;;;7.50;99.90;;;;;;5093560;28;20028;-76
2021/12/12 08:26:34;;;;;;;9.73;4.68;;;7.60;99.90;;;;;;5094530;28;20028;-75
2021/12/12 08:29:00;;;;;;;15.20;7.43;;;7.60;99.90;;;;;;5093477;28;20016;-76
2021/12/12 08:31:26;;;;;;;12.63;6.45;;;7.60;99.90;;;;;;5093814;28;20024;-75
2021/12/12 08:33:52;;;;;;;17.95;8.05;;;7.60;99.90;;;;;;5093406;28;20443;-76
2021/12/12 08:36:19;;;;;;;18.02;7.95;;;7.70;99.90;;;;;;5093725;28;20016;-76
2021/12/12 08:38:44;;;;;;;16.05;8.50;;;7.70;99.90;;;;;;5093731;28;20028;-76
2021/12/12 08:41:10;;;;;;;19.83;8.90;;;7.70;99.90;;;;;;5092967;28;20020;-75
2021/12/12 08:43:37;;;;;;;18.73;9.23;;;7.70;99.90;;;;;;5093450;28;20405;-75
2021/12/12 08:46:07;;;;;;;16.52;7.40;;;7.70;99.90;;;;;;5074674;28;20059;-76
2021/12/12 08:48:36;;;;;;;16.10;8.18;;;7.70;99.90;;;;;;5092601;28;20096;-75
2021/12/12 08:51:07;;;;;;;13.57;6.85;;;7.70;99.90;;;;;;5092935;28;20024;-76
2021/12/12 08:53:34;;;;;;;17.25;7.80;;;7.80;99.90;;;;;;5075329;28;20499;-75
2021/12/12 08:56:00;;;;;;;14.77;6.88;;;7.70;99.90;;;;;;5092840;28;20024;-75
2021/12/12 08:58:30;;;;;;;16.10;7.88;;;7.80;99.90;;;;;;5093267;28;20475;-75
2021/12/12 09:01:23;;;;;;;18.05;6.93;;;7.80;99.90;;;;;;5074597;28;20119;-75
2021/12/12 09:03:53;;;;;;;18.90;7.88;;;7.90;99.90;;;;;;5070486;28;20551;-75
2021/12/12 09:06:25;;;;;;;14.10;6.93;;;7.90;99.90;;;;;;5092721;28;20499;-75
2021/12/12 09:09:15;;;;;;;16.90;7.70;;;7.90;99.90;;;;;;5074575;28;20269;-75
2021/12/12 09:11:52;;;;;;;17.88;7.35;;;7.90;99.90;;;;;;5093137;28;20024;-75
2021/12/12 09:14:27;;;;;;;16.30;8.57;;;7.90;99.90;;;;;;5074873;28;20020;-75
2021/12/12 09:17:02;;;;;;;20.75;7.63;;;7.90;99.90;;;;;;5092542;28;20020;-75
2021/12/12 09:19:37;;;;;;;17.75;8.52;;;8.00;99.90;;;;;;5093017;28;20090;-75
2021/12/12 09:22:35;;;;;;;21.65;8.38;;;7.90;99.90;;;;;;5092562;28;20016;-75
2021/12/12 09:25:07;;;;;;;12.63;7.03;;;8.00;99.90;;;;;;5091493;28;20048;-75
2021/12/12 09:27:43;;;;;;;20.98;8.77;;;8.00;99.90;;;;;;5074865;28;20077;-75
2021/12/12 09:30:21;;;;;;;15.95;9.20;;;8.00;99.90;;;;;;5074218;28;20016;-75
2021/12/12 09:33:06;;;;;;;13.95;6.90;;;8.00;99.90;;;;;;5092769;28;20031;-75
2021/12/12 09:35:39;;;;;;;16.17;8.55;;;8.00;99.90;;;;;;5092762;28;20375;-74
2021/12/12 09:38:36;;;;;;;12.30;7.13;;;8.10;99.90;;;;;;5092242;28;20149;-75
2021/12/12 09:41:05;;;;;;;18.95;7.93;;;8.10;99.90;;;;;;5039649;28;20533;-75
2021/12/12 09:44:01;;;;;;;17.40;8.13;;;8.10;99.90;;;;;;5092337;28;20032;-75
2021/12/12 09:48:26;;;;;;;18.42;9.30;;;8.10;99.90;;;;;;5092523;28;20111;-75
2021/12/12 09:53:17;;;;;;;17.63;8.00;;;8.10;99.90;;;;;;5092178;28;20035;-75
2021/12/12 09:56:14;;;;;;;14.52;7.47;;;8.20;99.90;;;;;;5092694;28;20046;-75
2021/12/12 09:58:46;;;;;;;17.35;7.80;;;8.20;99.90;;;;;;5085044;28;20032;-75
2021/12/12 10:01:37;;;;;;;17.67;8.35;;;8.20;99.90;;;;;;5091984;28;20471;-75
2021/12/12 10:04:21;;;;;;;20.15;9.18;;;8.20;99.90;;;;;;5091374;28;20141;-75
2021/12/12 10:07:01;;;;;;;20.13;9.65;;;8.20;99.90;;;;;;5092296;28;20036;-75
2021/12/12 10:09:41;;;;;;;23.88;8.80;;;8.20;99.90;;;;;;5091905;28;20019;-75
2021/12/12 10:12:20;;;;;;;20.70;9.85;;;8.30;99.90;;;;;;5073635;28;20487;-75
2021/12/12 10:14:58;;;;;;;21.95;9.60;;;8.30;99.90;;;;;;5092310;28;20125;-74
2021/12/12 10:17:37;;;;;;;23.23;9.20;;;8.30;99.90;;;;;;5091825;28;20024;-75
2021/12/12 10:20:14;;;;;;;19.40;8.95;;;8.40;99.90;;;;;;5091788;28;20021;-75
2021/12/12 10:23:08;;;;;;;18.45;8.35;;;8.40;99.90;;;;;;5092024;28;20150;-75
2021/12/12 10:25:42;;;;;;;21.42;8.95;;;8.40;99.90;;;;;;5073890;28;20391;-75
2021/12/12 10:28:24;;;;;;;19.48;9.00;;;8.40;99.90;;;;;;5091498;28;20017;-75
2021/12/12 10:30:55;;;;;;;18.08;9.00;;;8.50;99.90;;;;;;5092202;28;20020;-75
2021/12/12 10:33:42;;;;;;;19.60;8.32;;;8.60;99.90;;;;;;5091601;28;20592;-75
2021/12/12 10:36:13;;;;;;;18.95;7.20;;;8.60;99.90;;;;;;5073012;28;20085;-74
2021/12/12 10:39:09;;;;;;;19.98;7.97;;;8.60;99.90;;;;;;5073756;28;20448;-74
2021/12/12 10:41:48;;;;;;;13.23;5.68;;;8.60;99.90;;;;;;5092117;28;20028;-74
2021/12/12 10:44:31;;;;;;;16.65;8.48;;;8.70;99.90;;;;;;5091573;28;20024;-75
2021/12/12 10:47:20;;;;;;;14.10;6.53;;;8.70;99.90;;;;;;5073647;28;20028;-74
2021/12/12 10:49:52;;;;;;;12.70;6.53;;;8.70;99.90;;;;;;5091955;28;20182;-74
2021/12/12 10:52:48;;;;;;;15.52;7.18;;;8.70;99.90;;;;;;5091254;28;20952;-74
2021/12/12 10:55:20;;;;;;;12.65;6.85;;;8.70;99.90;;;;;;5072848;28;20028;-74
2021/12/12 10:58:06;;;;;;;17.63;7.82;;;8.70;99.90;;;;;;5091985;28;20050;-74
2021/12/12 11:00:37;;;;;;;14.07;7.32;;;8.70;99.90;;;;;;5073722;28;20046;-74
2021/12/12 11:03:11;;;;;;;13.05;6.00;;;8.70;99.90;;;;;;5071862;28;20039;-75
2021/12/12 11:05:45;;;;;;;16.75;6.78;;;8.70;99.90;;;;;;5072621;28;20098;-74
2021/12/12 11:08:15;;;;;;;14.23;7.40;;;8.70;99.90;;;;;;5091200;28;20024;-74
2021/12/12 11:10:44;;;;;;;13.52;7.10;;;8.70;99.90;;;;;;5074168;28;20085;-74
2021/12/12 11:13:30;;;;;;;17.08;7.25;;;8.70;99.90;;;;;;5094883;28;20028;-76
2021/12/12 11:16:04;;;;;;;14.30;6.32;;;8.80;99.90;;;;;;5095648;28;20024;-75
2021/12/12 11:18:32;;;;;;;13.98;7.00;;;8.80;99.90;;;;;;5095205;28;20415;-74
2021/12/12 11:21:21;;;;;;;14.23;7.10;;;8.80;99.90;;;;;;5094845;28;20444;-74
2021/12/12 11:23:58;;;;;;;16.70;7.00;;;8.70;99.90;;;;;;5095249;28;20032;-76
2021/12/12 11:26:57;;;;;;;15.27;7.35;;;8.80;99.90;;;;;;5076488;28;20384;-75
2021/12/12 11:29:29;;;;;;;13.38;6.13;;;8.70;99.90;;;;;;5094597;28;20082;-76
2021/12/12 11:32:00;;;;;;;13.45;6.80;;;8.70;99.90;;;;;;5076895;28;20422;-75
2021/12/12 11:34:27;;;;;;;;;;;8.70;99.90;;;;;;5077242;28;20034;-75
2021/12/12 11:37:22;;;;;;;12.98;5.38;;;8.70;99.90;;;;;;5094931;28;19904;-76
2021/12/12 11:40:13;;;;;;;14.18;6.47;;;8.80;99.90;;;;;;5076684;28;20111;-75
2021/12/12 11:43:14;;;;;;;16.80;7.15;;;8.80;99.90;;;;;;5094959;28;20055;-75
2021/12/12 11:45:54;;;;;;;13.60;5.78;;;8.80;99.90;;;;;;5094773;28;20104;-75
2021/12/12 11:48:48;;;;;;;13.23;6.03;;;8.80;99.90;;;;;;5094311;28;20471;-74
2021/12/12 11:51:36;;;;;;;15.35;6.07;;;8.90;99.90;;;;;;5076134;28;20024;-75
2021/12/12 11:54:23;;;;;;;16.10;7.00;;;8.90;99.90;;;;;;5094514;28;20028;-76
2021/12/12 11:56:54;;;;;;;19.50;7.28;;;8.90;99.90;;;;;;5094539;28;20031;-75
2021/12/12 11:59:31;;;;;;;16.27;7.68;;;9.00;99.90;;;;;;5093667;28;20474;-76
2021/12/12 12:02:08;;;;;;;14.50;6.90;;;8.90;99.90;;;;;;5094492;28;20448;-76
2021/12/12 12:05:11;;;;;;;14.55;6.45;;;9.00;99.90;;;;;;5093999;28;20089;-75
2021/12/12 12:07:40;;;;;;;14.23;6.40;;;9.00;99.90;;;;;;5076122;28;20093;-75
2021/12/12 12:10:38;;;;;;;11.88;5.47;;;9.10;99.90;;;;;;5075636;28;20376;-75
2021/12/12 12:13:22;;;;;;;16.15;6.78;;;9.10;99.90;;;;;;5075064;28;20075;-75
2021/12/12 12:15:51;;;;;;;12.00;6.18;;;9.10;99.90;;;;;;5076028;28;20093;-75
2021/12/12 12:18:34;;;;;;;14.43;6.43;;;9.10;99.90;;;;;;5075116;28;20020;-74
2021/12/12 12:21:32;;;;;;;13.00;6.70;;;9.10;99.90;;;;;;5075931;28;20031;-74
2021/12/12 12:24:41;;;;;;;13.80;6.07;;;9.10;99.90;;;;;;5075668;28;20464;-74
2021/12/12 12:27:15;;;;;;;14.07;7.25;;;9.10;99.90;;;;;;5074280;28;20036;-74
2021/12/12 12:29:44;;;;;;;14.90;6.32;;;9.10;99.90;;;;;;5093910;28;20383;-74
2021/12/12 12:32:47;;;;;;;18.55;7.18;;;9.20;99.90;;;;;;5093286;28;20042;-75
2021/12/12 12:35:47;;;;;;;13.02;5.65;;;9.20;99.90;;;;;;5074999;28;20028;-75
2021/12/12 12:38:50;;;;;;;14.57;7.05;;;9.20;99.90;;;;;;5093267;28;20043;-74
2021/12/12 12:41:37;;;;;;;12.75;6.45;;;9.20;99.90;;;;;;5093276;28;20032;-74
2021/12/12 12:44:44;;;;;;;14.32;6.35;;;9.30;99.90;;;;;;5075320;28;20028;-74
2021/12/12 12:47:31;;;;;;;14.00;7.07;;;9.30;99.90;;;;;;5058383;28;20040;-74
2021/12/12 12:50:19;;;;;;;14.18;6.05;;;9.30;99.90;;;;;;5075177;28;20028;-75
2021/12/12 12:53:15;;;;;;;14.32;6.22;;;9.40;99.90;;;;;;5075036;28;20031;-75
2021/12/12 12:56:25;;;;;;;17.75;8.65;;;9.40;99.90;;;;;;5074743;28;20098;-74
2021/12/12 12:59:19;;;;;;;18.35;7.97;;;9.40;99.90;;;;;;5075113;28;20111;-76
2021/12/12 13:02:12;;;;;;;20.48;9.73;;;9.40;99.90;;;;;;5075065;28;20032;-74
2021/12/12 13:04:56;;;;;;;25.20;9.85;;;9.40;99.90;;;;;;5074831;28;20051;-74
2021/12/12 13:07:39;;;;;;;20.17;8.32;;;9.40;99.90;;;;;;5074819;28;20073;-74
2021/12/12 13:10:14;;;;;;;18.92;7.97;;;9.40;99.90;;;;;;5092856;28;20145;-74
2021/12/12 13:13:04;;;;;;;17.25;8.18;;;9.40;99.90;;;;;;5092886;28;20104;-74
2021/12/12 13:15:42;;;;;;;13.68;6.60;;;9.40;99.90;;;;;;5074257;28;20012;-74
2021/12/12 13:18:51;;;;;;;17.05;7.35;;;9.50;99.90;;;;;;5092261;28;20024;-74
2021/12/12 13:21:21;;;;;;;14.98;6.63;;;9.50;99.90;;;;;;5074121;28;20024;-74
2021/12/12 13:24:44;;;;;;;15.15;8.18;;;9.50;99.90;;;;;;5074619;28;20123;-74
2021/12/12 13:27:37;;;;;;;13.80;6.88;;;9.50;99.90;;;;;;4990371;28;20034;-74
2021/12/12 13:30:27;;;;;;;14.85;7.88;;;9.50;99.90;;;;;;4974615;28;20030;-74
2021/12/12 13:33:07;;;;;;;18.65;8.20;;;9.50;99.90;;;;;;4970984;28;20043;-74
2021/12/12 13:35:41;;;;;;;19.35;8.82;;;9.50;99.90;;;;;;4969929;28;20085;-74
2021/12/12 13:38:20;;;;;;;17.88;7.65;;;9.50;99.90;;;;;;4971347;28;20041;-74
2021/12/12 13:41:15;;;;;;;18.38;8.05;;;9.50;99.90;;;;;;4971503;28;20031;-76
2021/12/12 13:43:49;;;;;;;13.60;7.65;;;9.50;99.90;;;;;;4971343;28;20442;-75
2021/12/12 13:46:31;;;;;;;13.95;6.97;;;9.60;99.90;;;;;;4970933;28;20035;-76
2021/12/12 13:49:08;;;;;;;20.40;8.88;;;9.50;99.90;;;;;;4971162;28;20042;-75